Time;durP1;ratioP1;P1;durP2;ratioP2;P2;SDS_P1;SDS_P2;PMS_P1;PMS_P2;Temp;Humidity;BMP_temperature;BMP_pressure;BME280_temperature;BME280_humidity;BME280_pressure;Samples;Min_cycle;Max_cycle;Signal;HPM_P1;HPM_P2
2022/06/20 00:01:53;;;;;;;;;8.00;7.00;;;;;24.89;47.15;100213.27;110274;1265;18496;-49
2022/06/20 00:04:20;;;;;;;;;4.00;4.00;;;;;24.82;47.21;100209.46;110303;1264;18663;-48
2022/06/20 00:06:48;;;;;;;;;6.00;5.33;;;;;24.84;47.17;100218.55;110294;1265;19474;-48
2022/06/20 00:09:15;;;;;;;;;6.00;6.00;;;;;24.76;47.12;100217.02;110328;1264;18598;-48
2022/06/20 00:11:43;;;;;;;;;5.33;5.33;;;;;24.77;47.11;100208.34;110282;1264;18824;-48
2022/06/20 00:14:10;;;;;;;;;4.00;4.00;;;;;24.82;47.18;100213.52;110280;1264;19469;-49
2022/06/20 00:16:37;;;;;;;;;4.00;4.00;;;;;24.81;47.07;100221.36;110241;1265;20444;-49
2022/06/20 00:19:05;;;;;;;;;6.67;6.00;;;;;24.83;47.25;100226.58;110270;1264;18836;-47
2022/06/20 00:21:32;;;;;;;;;4.00;4.00;;;;;24.81;47.23;100230.46;110240;1264;20021;-48
2022/06/20 00:23:59;;;;;;;;;6.33;6.00;;;;;24.75;47.34;100237.14;110325;1264;18455;-48
2022/06/20 00:26:26;;;;;;;;;4.00;4.00;;;;;24.72;47.33;100241.33;110260;1264;18715;-49
2022/06/20 00:28:54;;;;;;;;;7.00;7.00;;;;;24.67;47.53;100257.70;110226;1264;19717;-48
2022/06/20 00:31:21;;;;;;;;;6.00;6.00;;;;;24.63;47.70;100261.88;110283;1265;22379;-48
2022/06/20 00:33:49;;;;;;;;;11.00;7.33;;;;;24.63;47.58;100266.23;110280;1264;18691;-48
2022/06/20 00:36:16;;;;;;;;;6.00;6.00;;;;;24.70;47.55;100277.64;110294;1264;19646;-48
2022/06/20 00:38:43;;;;;;;;;4.67;4.00;;;;;24.73;47.60;100286.69;110282;1263;18701;-49
2022/06/20 00:41:11;;;;;;;;;7.00;6.67;;;;;24.67;47.43;100290.67;110288;1264;23528;-48
2022/06/20 00:43:38;;;;;;;;;7.00;7.00;;;;;24.62;47.81;100285.49;110270;1264;22158;-48
2022/06/20 00:46:05;;;;;;;;;8.67;7.00;;;;;24.69;47.68;100283.20;110306;1264;21903;-47
2022/06/20 00:48:32;;;;;;;;;7.00;7.00;;;;;24.71;47.78;100279.10;110279;1264;18793;-47
2022/06/20 00:51:00;;;;;;;;;7.00;6.00;;;;;24.72;47.66;100287.15;110312;1264;19796;-49
2022/06/20 00:53:27;;;;;;;;;6.00;6.00;;;;;24.69;47.63;100287.84;110239;1265;18608;-49
2022/06/20 00:55:54;;;;;;;;;9.00;7.00;;;;;24.68;47.68;100285.23;110296;1264;18753;-48
2022/06/20 00:58:22;;;;;;;;;6.00;6.00;;;;;24.72;47.77;100294.15;110262;1264;19556;-51
2022/06/20 01:00:49;;;;;;;;;7.00;7.00;;;;;24.75;47.64;100292.59;110171;1264;19121;-54
2022/06/20 01:03:16;;;;;;;;;8.00;7.00;;;;;24.75;47.54;100289.47;110326;1264;18943;-47
2022/06/20 01:05:44;;;;;;;;;7.00;7.00;;;;;24.74;47.72;100288.34;110269;1265;19567;-48
2022/06/20 01:08:11;;;;;;;;;6.00;6.00;;;;;24.78;47.69;100288.96;110265;1265;18742;-49
2022/06/20 01:10:38;;;;;;;;;7.00;7.00;;;;;24.80;47.59;100297.69;110291;1264;18964;-47
2022/06/20 01:13:05;;;;;;;;;7.33;7.00;;;;;24.77;47.71;100289.63;110275;1264;19510;-49
2022/06/20 01:15:33;;;;;;;;;9.67;8.00;;;;;24.67;47.81;100286.88;110295;1264;20052;-49
2022/06/20 01:18:02;;;;;;;;;8.50;7.00;;;;;24.72;47.94;100293.05;110301;1264;22207;-48
2022/06/20 01:20:29;;;;;;;;;8.00;7.00;;;;;24.73;47.87;100297.70;110287;1264;19737;-47
2022/06/20 01:22:56;;;;;;;;;7.00;7.00;;;;;24.75;47.60;100308.33;110290;1263;19829;-48
2022/06/20 01:25:24;;;;;;;;;8.00;7.67;;;;;24.80;47.79;100315.15;110245;1265;21240;-50
2022/06/20 01:27:52;;;;;;;;;7.67;7.67;;;;;24.80;47.75;100312.24;110250;1265;19449;-54
2022/06/20 01:30:19;;;;;;;;;7.33;7.33;;;;;24.76;47.71;100303.43;110142;1264;18508;-52
2022/06/20 01:32:46;;;;;;;;;9.00;8.67;;;;;24.72;47.77;100308.06;110209;1265;20908;-50
2022/06/20 01:37:23;;;;;;;;;8.00;8.00;;;;;24.73;47.88;100322.86;110286;1263;19541;-50
2022/06/20 01:38:01;;;;;;;;;8.00;8.00;;;;;24.72;47.92;100323.84;110271;1264;18385;-49
2022/06/20 01:40:28;;;;;;;;;7.00;7.00;;;;;24.62;48.11;100329.41;110234;1265;18736;-48
2022/06/20 01:42:55;;;;;;;;;6.00;6.00;;;;;24.67;48.15;100335.40;110248;1264;19564;-48
2022/06/20 01:48:07;;;;;;;;;8.00;7.33;;;;;24.67;47.97;100328.99;110269;1264;22828;-47
2022/06/20 01:50:35;;;;;;;;;10.33;7.00;;;;;24.64;48.12;100320.68;110263;1264;19516;-46
2022/06/20 01:53:02;;;;;;;;;9.00;8.00;;;;;24.61;48.03;100326.39;110247;1264;20020;-48
2022/06/20 01:55:30;;;;;;;;;9.00;8.00;;;;;24.61;48.22;100319.92;110197;1263;19022;-49
2022/06/20 01:57:57;;;;;;;;;7.33;7.00;;;;;24.66;48.03;100319.98;110223;1264;19791;-46
2022/06/20 02:00:24;;;;;;;;;11.00;9.00;;;;;24.68;48.13;100314.32;110263;1265;18706;-50
2022/06/20 02:02:51;;;;;;;;;8.00;8.00;;;;;24.68;48.06;100307.91;110302;1264;19094;-48
2022/06/20 02:05:19;;;;;;;;;9.00;8.67;;;;;24.69;47.97;100295.73;110268;1265;19664;-51
2022/06/20 02:07:47;;;;;;;;;7.67;7.00;;;;;24.62;47.98;100281.33;110220;1264;18441;-49
2022/06/20 02:10:14;;;;;;;;;7.50;7.50;;;;;24.67;47.96;100271.70;110220;1265;21650;-49
2022/06/20 02:12:41;;;;;;;;;9.00;9.00;;;;;24.66;47.95;100273.44;110289;1264;19797;-50
2022/06/20 02:15:09;;;;;;;;;7.00;7.00;;;;;24.61;47.75;100272.09;110324;1264;20094;-48
2022/06/20 02:17:36;;;;;;;;;9.00;8.00;;;;;24.62;47.95;100267.48;110270;1264;18764;-48
2022/06/20 02:20:03;;;;;;;;;8.33;8.00;;;;;24.67;47.81;100261.66;110314;1264;19751;-48
2022/06/20 02:22:30;;;;;;;;;11.00;8.00;;;;;24.63;47.74;100255.34;110272;1264;18612;-48
2022/06/20 02:24:58;;;;;;;;;8.67;8.00;;;;;24.57;47.98;100262.87;110251;1264;19683;-51
2022/06/20 02:27:25;;;;;;;;;8.33;8.33;;;;;24.57;48.05;100278.09;110295;1264;19477;-53
2022/06/20 02:29:52;;;;;;;;;7.33;7.33;;;;;24.53;48.02;100295.53;110259;1264;18449;-48
2022/06/20 02:32:19;;;;;;;;;8.50;8.50;;;;;24.55;48.06;100294.23;110254;1264;18810;-47
2022/06/20 02:34:47;;;;;;;;;9.67;8.00;;;;;24.49;48.09;100289.90;110239;1264;19884;-51
2022/06/20 02:37:15;;;;;;;;;8.00;7.33;;;;;24.40;48.35;100298.46;110253;1264;22329;-48
2022/06/20 02:39:42;;;;;;;;;7.00;7.00;;;;;24.44;48.18;100302.80;110292;1264;18767;-53
2022/06/20 02:42:09;;;;;;;;;8.67;8.00;;;;;24.47;48.20;100301.48;110332;1264;22272;-50
2022/06/20 02:44:37;;;;;;;;;7.67;7.00;;;;;24.49;48.02;100308.27;110267;1264;18460;-47
2022/06/20 02:47:04;;;;;;;;;7.00;7.00;;;;;24.47;47.87;100302.91;110265;1264;22747;-48
2022/06/20 02:49:32;;;;;;;;;8.00;7.33;;;;;24.43;48.22;100315.60;110285;1264;19694;-50
2022/06/20 02:51:59;;;;;;;;;8.00;8.00;;;;;24.50;48.20;100340.89;110260;1264;20765;-48
2022/06/20 02:54:27;;;;;;;;;8.00;7.00;;;;;24.57;48.05;100349.45;110274;1264;18938;-49
2022/06/20 02:56:54;;;;;;;;;7.00;7.00;;;;;24.59;47.87;100354.33;110313;1264;19494;-48
2022/06/20 02:59:22;;;;;;;;;7.00;7.00;;;;;24.50;48.02;100369.27;110272;1264;18466;-49
2022/06/20 03:01:49;;;;;;;;;7.50;7.50;;;;;24.45;48.18;100359.23;110249;1264;18805;-49
2022/06/20 03:04:17;;;;;;;;;8.00;7.67;;;;;24.49;48.00;100345.02;110253;1264;19395;-48
2022/06/20 03:06:44;;;;;;;;;10.50;8.50;;;;;24.51;48.00;100358.42;110275;1264;22252;-48
2022/06/20 03:09:11;;;;;;;;;6.00;6.00;;;;;24.43;47.97;100378.91;110313;1263;19819;-48
2022/06/20 03:11:39;;;;;;;;;6.33;6.00;;;;;24.42;48.06;100369.21;110261;1264;20037;-48
2022/06/20 03:14:06;;;;;;;;;13.00;11.00;;;;;24.41;48.08;100372.45;110270;1264;18936;-48
2022/06/20 03:16:34;;;;;;;;;8.00;8.00;;;;;24.45;48.03;100365.34;110273;1263;22328;-48
2022/06/20 03:19:01;;;;;;;;;10.33;7.00;;;;;24.47;48.14;100356.98;110255;1264;20342;-48
2022/06/20 03:21:28;;;;;;;;;8.67;8.00;;;;;24.51;47.90;100378.53;110299;1264;22106;-48
2022/06/20 03:23:55;;;;;;;;;8.00;8.00;;;;;24.52;47.85;100374.66;110308;1264;18953;-48
2022/06/20 03:26:23;;;;;;;;;11.67;9.00;;;;;24.53;47.87;100358.92;110263;1265;20896;-48
2022/06/20 03:28:50;;;;;;;;;7.00;6.67;;;;;24.53;48.12;100372.08;110257;1263;22787;-50
2022/06/20 03:31:17;;;;;;;;;9.00;8.00;;;;;24.48;48.24;100406.14;110278;1265;18759;-48
2022/06/20 03:33:44;;;;;;;;;8.00;8.00;;;;;24.38;48.39;100422.34;110271;1265;22239;-48
2022/06/20 03:36:13;;;;;;;;;7.00;7.00;;;;;24.38;48.50;100436.05;110266;1264;18591;-48
2022/06/20 03:38:42;;;;;;;;;8.67;8.00;;;;;24.38;48.56;100446.42;110371;1265;18819;-47
2022/06/20 03:41:09;;;;;;;;;8.00;8.00;;;;;24.38;48.59;100415.45;110305;1264;20961;-48
2022/06/20 03:43:36;;;;;;;;;9.00;8.00;;;;;24.38;48.66;100368.49;110186;1264;19599;-50
2022/06/20 03:46:03;;;;;;;;;6.33;6.33;;;;;24.43;48.63;100354.33;110259;1264;18671;-50
2022/06/20 03:48:31;;;;;;;;;7.00;7.00;;;;;24.35;48.68;100321.08;110255;1264;19652;-50
2022/06/20 03:50:59;;;;;;;;;8.33;8.33;;;;;24.33;48.87;100287.73;110320;1264;18573;-48
2022/06/20 03:53:26;;;;;;;;;9.67;8.00;;;;;24.34;48.72;100293.17;110289;1264;18745;-48
2022/06/20 03:55:53;;;;;;;;;7.00;6.00;;;;;24.40;48.94;100370.39;110265;1264;20871;-48
2022/06/20 03:58:20;;;;;;;;;10.00;8.50;;;;;24.32;49.15;100382.55;110255;1264;18537;-48
2022/06/20 04:00:48;;;;;;;;;7.00;7.00;;;;;24.28;49.14;100389.02;110276;1264;22523;-49
2022/06/20 04:03:15;;;;;;;;;7.67;7.00;;;;;24.21;49.51;100370.25;110273;1264;19945;-49
2022/06/20 04:05:42;;;;;;;;;7.67;7.00;;;;;24.13;49.71;100367.77;110260;1264;18871;-48
2022/06/20 04:08:09;;;;;;;;;8.00;8.00;;;;;24.14;49.80;100379.05;110261;1264;18883;-48
2022/06/20 04:13:22;;;;;;;;;8.00;8.00;;;;;24.23;49.72;100307.54;110299;1264;18534;-48
2022/06/20 04:15:49;;;;;;;;;10.33;8.00;;;;;24.27;49.52;100327.77;110245;1264;18756;-49
2022/06/20 04:18:29;;;;;;;;;8.00;8.00;;;;;24.33;49.52;100351.70;110276;1265;22596;-51
2022/06/20 04:20:56;;;;;;;;;8.00;8.00;;;;;24.30;49.63;100364.88;110283;1264;18794;-54
2022/06/20 04:23:23;;;;;;;;;6.33;6.00;;;;;24.34;49.53;100323.86;110263;1264;21950;-47
2022/06/20 04:25:50;;;;;;;;;7.67;7.67;;;;;24.38;49.58;100278.45;110285;1264;19815;-48
2022/06/20 04:28:18;;;;;;;;;9.00;8.00;;;;;24.38;49.65;100241.52;110278;1264;25669;-48
2022/06/20 04:30:46;;;;;;;;;8.00;8.00;;;;;24.35;49.91;100214.10;110280;1264;18731;-49
2022/06/20 04:33:13;;;;;;;;;7.00;7.00;;;;;24.40;49.71;100224.33;110290;1265;19485;-48
2022/06/20 04:35:41;;;;;;;;;7.00;7.00;;;;;24.44;49.55;100244.59;110262;1264;18406;-48
2022/06/20 04:38:08;;;;;;;;;8.50;7.50;;;;;24.44;49.60;100222.32;110227;1265;20149;-48
2022/06/20 04:40:35;;;;;;;;;7.00;7.00;;;;;24.37;49.84;100209.79;110242;1264;22083;-48
2022/06/20 04:43:02;;;;;;;;;8.00;8.00;;;;;24.33;50.10;100229.80;110248;1264;20153;-48
2022/06/20 04:45:30;;;;;;;;;7.33;7.00;;;;;24.38;50.06;100244.82;110251;1264;22469;-48
2022/06/20 04:47:57;;;;;;;;;7.67;7.67;;;;;24.42;50.05;100269.92;110305;1264;19738;-48
2022/06/20 04:50:24;;;;;;;;;7.00;7.00;;;;;24.39;50.08;100288.52;110251;1264;18538;-48
2022/06/20 04:52:51;;;;;;;;;7.33;7.00;;;;;24.35;50.15;100289.30;110282;1264;18879;-48
2022/06/20 04:55:19;;;;;;;;;6.33;6.33;;;;;24.22;50.41;100271.52;110211;1264;21704;-53
2022/06/20 04:57:46;;;;;;;;;7.00;7.00;;;;;24.25;50.44;100312.75;110225;1265;18450;-48
2022/06/20 05:00:14;;;;;;;;;7.00;7.00;;;;;24.31;50.44;100339.10;110319;1265;18859;-51
2022/06/20 05:02:41;;;;;;;;;7.67;7.67;;;;;24.28;50.59;100343.17;110262;1264;19546;-48
2022/06/20 05:05:09;;;;;;;;;8.33;8.00;;;;;24.25;50.71;100296.02;110282;1264;18792;-51
2022/06/20 05:07:36;;;;;;;;;11.00;8.00;;;;;24.24;50.75;100315.54;110274;1264;18997;-52
2022/06/20 05:10:03;;;;;;;;;8.00;7.50;;;;;24.26;50.63;100320.23;110282;1265;19785;-49
2022/06/20 05:12:31;;;;;;;;;8.00;7.50;;;;;24.21;50.82;100336.46;110306;1263;22810;-46
2022/06/20 05:14:58;;;;;;;;;8.00;8.00;;;;;24.13;50.80;100351.05;110249;1264;19185;-50
2022/06/20 05:17:25;;;;;;;;;8.67;7.67;;;;;24.20;51.00;100366.13;110275;1264;19520;-55
2022/06/20 05:19:52;;;;;;;;;7.00;7.00;;;;;24.26;51.24;100390.36;110160;1264;22859;-51
2022/06/20 05:22:20;;;;;;;;;8.00;7.00;;;;;24.25;51.59;100411.46;110231;1265;19563;-52
2022/06/20 05:24:48;;;;;;;;;11.67;11.00;;;;;24.21;51.81;100403.00;110268;1264;20413;-49
2022/06/20 05:27:15;;;;;;;;;14.00;13.00;;;;;24.21;52.01;100395.23;110143;1263;18579;-50
2022/06/20 05:29:43;;;;;;;;;13.00;13.00;;;;;24.19;51.99;100381.54;109863;1264;18874;-48
2022/06/20 05:32:10;;;;;;;;;17.00;15.00;;;;;24.16;52.28;100371.90;109743;1265;19471;-53
2022/06/20 05:34:37;;;;;;;;;17.33;13.00;;;;;23.99;52.61;100365.50;110086;1264;28031;-50
2022/06/20 05:37:04;;;;;;;;;15.67;15.00;;;;;23.81;52.88;100347.15;109976;1263;18937;-49
2022/06/20 05:39:32;;;;;;;;;13.00;11.33;;;;;23.82;53.02;100347.86;109926;1264;21243;-52
2022/06/20 05:41:59;;;;;;;;;16.00;15.00;;;;;23.86;52.97;100350.14;109994;1264;318956;-50
2022/06/20 05:44:26;;;;;;;;;20.00;17.50;;;;;23.82;52.96;100332.62;110260;1264;18778;-53
2022/06/20 05:46:54;;;;;;;;;18.00;17.00;;;;;23.78;53.03;100305.80;110271;1264;19553;-51
2022/06/20 05:49:21;;;;;;;;;16.00;15.33;;;;;23.76;53.19;100296.61;110284;1265;18823;-50
2022/06/20 05:51:48;;;;;;;;;15.33;13.00;;;;;23.78;53.20;100283.98;110188;1265;19073;-50
2022/06/20 05:54:16;;;;;;;;;18.00;13.33;;;;;23.75;53.10;100223.36;110264;1264;19685;-49
2022/06/20 05:56:43;;;;;;;;;12.67;12.00;;;;;23.93;52.92;100159.45;110244;1264;18704;-51
2022/06/20 05:59:10;;;;;;;;;13.00;11.67;;;;;24.21;53.06;100153.30;110189;1264;21135;-54
2022/06/20 06:01:37;;;;;;;;;13.00;12.00;;;;;24.44;52.67;100186.86;110219;1264;19587;-50
2022/06/20 06:04:05;;;;;;;;;11.67;11.00;;;;;24.55;52.16;100170.98;110290;1264;19042;-48
2022/06/20 06:06:32;;;;;;;;;13.00;13.00;;;;;24.51;52.11;100181.23;110262;1264;19039;-52
2022/06/20 06:09:00;;;;;;;;;10.33;8.67;;;;;24.67;51.77;100180.98;110282;1264;19662;-50
2022/06/20 06:11:27;;;;;;;;;11.00;9.67;;;;;24.79;51.72;100176.89;110096;1264;18720;-51
2022/06/20 06:13:54;;;;;;;;;11.00;10.33;;;;;24.88;51.59;100183.77;110189;1264;20206;-50
2022/06/20 06:19:07;;;;;;;;;12.00;11.00;;;;;24.95;51.47;100222.61;110247;1264;18700;-50
2022/06/20 06:21:34;;;;;;;;;16.00;14.33;;;;;24.83;51.16;100243.79;110275;1264;18863;-51
2022/06/20 06:24:01;;;;;;;;;13.33;13.00;;;;;24.72;51.48;100216.31;110280;1264;19638;-50
2022/06/20 06:26:29;;;;;;;;;9.33;9.33;;;;;24.59;51.49;100205.77;110230;1264;18862;-49
2022/06/20 06:28:56;;;;;;;;;10.00;9.00;;;;;24.32;51.86;100212.45;110263;1264;19019;-50
2022/06/20 06:31:23;;;;;;;;;9.33;9.33;;;;;24.21;52.21;100207.23;110248;1264;19624;-50
2022/06/20 06:33:50;;;;;;;;;10.33;8.00;;;;;24.12;52.35;100179.02;110233;1264;22191;-53
2022/06/20 06:36:18;;;;;;;;;11.00;11.00;;;;;24.00;52.68;100184.36;110277;1264;18794;-49
2022/06/20 06:38:45;;;;;;;;;11.00;9.33;;;;;24.00;52.53;100195.19;110224;1264;19509;-51
2022/06/20 06:41:14;;;;;;;;;10.00;8.00;;;;;24.02;52.66;100171.99;110268;1264;18827;-51
2022/06/20 06:43:41;;;;;;;;;8.67;8.67;;;;;24.00;52.59;100175.36;110214;1265;18839;-50
2022/06/20 06:46:08;;;;;;;;;11.00;10.00;;;;;24.14;52.34;100209.30;110262;1264;22815;-51
2022/06/20 06:48:36;;;;;;;;;10.33;10.00;;;;;23.93;53.00;100242.81;110245;1264;20004;-50
2022/06/20 06:51:03;;;;;;;;;10.00;10.00;;;;;23.84;53.27;100247.78;110243;1264;20414;-50
2022/06/20 06:53:31;;;;;;;;;9.33;9.33;;;;;23.96;53.11;100253.39;110126;1264;22549;-51
2022/06/20 06:55:58;;;;;;;;;10.00;10.00;;;;;23.69;53.17;100240.56;110143;1263;18801;-50
2022/06/20 06:58:25;;;;;;;;;10.50;10.50;;;;;23.66;53.41;100221.28;110208;1264;18797;-51
2022/06/20 07:00:53;;;;;;;;;12.00;10.33;;;;;23.80;52.95;100216.08;110153;1264;19481;-51
2022/06/20 07:03:20;;;;;;;;;10.67;10.67;;;;;23.58;53.18;100218.17;110160;1264;18718;-50
2022/06/20 07:05:47;;;;;;;;;10.33;10.33;;;;;23.46;53.57;100216.04;110099;1264;22749;-49
2022/06/20 07:08:15;;;;;;;;;14.33;13.00;;;;;23.71;53.18;100221.71;110099;1264;19482;-49
2022/06/20 07:10:42;;;;;;;;;11.33;11.00;;;;;23.82;52.92;100228.33;110101;1265;18703;-50
2022/06/20 07:13:10;;;;;;;;;13.67;12.67;;;;;23.97;52.62;100236.30;110211;1265;19281;-50
2022/06/20 07:15:38;;;;;;;;;12.00;10.67;;;;;24.13;52.29;100247.03;110274;1264;19797;-49
2022/06/20 07:18:05;;;;;;;;;12.33;12.00;;;;;24.27;52.22;100260.27;110317;1264;18826;-51
2022/06/20 07:20:32;;;;;;;;;11.33;11.00;;;;;24.33;51.97;100260.35;110259;1264;19105;-51
2022/06/20 07:22:59;;;;;;;;;12.33;12.00;;;;;24.37;51.88;100257.62;110273;1264;20368;-50
2022/06/20 07:25:27;;;;;;;;;28.67;27.00;;;;;24.37;51.86;100263.30;110248;1264;18724;-53
2022/06/20 07:27:54;;;;;;;;;30.50;28.00;;;;;24.38;51.82;100254.73;110286;1264;19082;-50
2022/06/20 07:30:21;;;;;;;;;23.00;22.00;;;;;24.42;51.75;100242.64;110238;1264;19827;-50
2022/06/20 07:32:49;;;;;;;;;23.00;23.00;;;;;24.40;51.64;100246.79;110210;1265;18866;-49
2022/06/20 07:35:17;;;;;;;;;22.67;20.00;;;;;24.39;51.69;100252.14;110283;1265;18923;-48
2022/06/20 07:37:44;;;;;;;;;17.33;17.33;;;;;24.44;51.59;100262.42;110231;1263;22726;-48
2022/06/20 07:40:13;;;;;;;;;17.00;17.00;;;;;24.51;51.62;100264.81;110270;1264;18794;-50
2022/06/20 07:42:40;;;;;;;;;21.00;19.67;;;;;24.58;51.49;100263.74;110288;1265;19144;-53
2022/06/20 07:45:07;;;;;;;;;17.00;17.00;;;;;24.63;51.45;100256.57;110261;1265;27778;-49
2022/06/20 07:47:35;;;;;;;;;16.00;14.33;;;;;24.65;51.70;100253.81;110243;1264;18932;-48
2022/06/20 07:50:02;;;;;;;;;17.50;15.50;;;;;24.72;52.03;100255.41;110255;1265;19106;-51
2022/06/20 07:52:30;;;;;;;;;18.00;17.00;;;;;24.78;51.85;100263.74;110260;1264;19555;-49
2022/06/20 07:54:58;;;;;;;;;13.00;13.00;;;;;24.79;52.04;100271.80;110268;1264;19154;-48
2022/06/20 07:57:26;;;;;;;;;12.00;11.67;;;;;24.82;51.96;100269.67;110243;1264;18892;-50
2022/06/20 07:59:53;;;;;;;;;13.33;13.00;;;;;24.83;52.10;100267.10;110251;1264;19350;-51
2022/06/20 08:02:20;;;;;;;;;14.00;13.00;;;;;24.81;52.29;100270.10;110213;1264;22706;-50
2022/06/20 08:04:48;;;;;;;;;13.00;13.00;;;;;24.80;51.73;100269.98;110240;1263;22190;-50
2022/06/20 08:07:15;;;;;;;;;14.00;14.00;;;;;24.80;51.84;100269.91;110267;1264;19605;-49
2022/06/20 08:09:43;;;;;;;;;13.67;13.33;;;;;24.79;51.77;100262.14;110232;1264;19239;-49
2022/06/20 08:12:10;;;;;;;;;13.00;11.33;;;;;24.78;51.93;100254.04;110280;1264;22482;-49
2022/06/20 08:14:38;;;;;;;;;14.00;14.00;;;;;24.75;51.92;100253.21;110181;1264;22083;-48
2022/06/20 08:17:08;;;;;;;;;14.67;13.00;;;;;24.75;52.03;100251.73;110243;1264;18786;-47
2022/06/20 08:19:35;;;;;;;;;11.00;10.33;;;;;24.78;52.16;100261.39;110241;1264;18783;-49
2022/06/20 08:22:02;;;;;;;;;13.67;12.67;;;;;24.81;52.28;100273.14;110230;1264;21393;-48
2022/06/20 08:24:30;;;;;;;;;12.33;12.00;;;;;24.84;52.35;100269.20;110278;1264;18783;-47
2022/06/20 08:26:58;;;;;;;;;19.00;17.00;;;;;24.85;52.31;100264.41;110207;1264;18746;-49
2022/06/20 08:29:25;;;;;;;;;12.00;12.00;;;;;24.84;52.14;100273.84;110191;1264;21958;-49
2022/06/20 08:31:52;;;;;;;;;14.00;14.00;;;;;24.77;51.85;100286.64;110253;1264;24084;-50
2022/06/20 08:34:20;;;;;;;;;12.33;11.33;;;;;24.72;52.07;100291.63;110255;1264;18963;-48
2022/06/20 08:36:47;;;;;;;;;12.33;12.00;;;;;24.71;51.83;100294.27;110288;1264;23520;-48
2022/06/20 08:39:14;;;;;;;;;12.33;11.33;;;;;24.74;51.84;100298.66;110267;1263;19075;-50
2022/06/20 08:41:42;;;;;;;;;13.00;13.00;;;;;24.75;51.72;100301.31;110251;1264;22438;-48
2022/06/20 08:44:09;;;;;;;;;16.00;12.00;;;;;24.73;51.58;100319.53;110213;1264;19550;-50
2022/06/20 08:46:36;;;;;;;;;13.00;13.00;;;;;24.70;51.60;100338.47;110273;1265;18802;-50
2022/06/20 08:49:04;;;;;;;;;16.67;16.00;;;;;24.70;51.73;100336.61;110277;1264;20568;-50
2022/06/20 08:51:31;;;;;;;;;16.00;15.00;;;;;24.73;51.69;100345.17;110130;1263;19468;-48
2022/06/20 08:53:58;;;;;;;;;17.00;15.00;;;;;24.71;51.74;100346.87;110152;1264;18776;-48
2022/06/20 08:56:26;;;;;;;;;13.00;13.00;;;;;24.67;51.75;100343.86;110259;1264;19261;-49
2022/06/20 08:58:53;;;;;;;;;16.00;15.67;;;;;24.64;51.77;100330.51;110216;1265;19477;-51
2022/06/20 09:01:20;;;;;;;;;15.67;14.00;;;;;24.62;51.83;100333.17;110257;1264;18872;-49
2022/06/20 09:03:48;;;;;;;;;12.00;12.00;;;;;24.62;51.61;100353.61;110221;1264;19216;-48
2022/06/20 09:06:15;;;;;;;;;12.00;12.00;;;;;24.61;51.83;100375.46;110283;1264;19697;-49
2022/06/20 09:08:42;;;;;;;;;13.67;12.67;;;;;24.61;51.93;100369.00;110234;1263;18835;-49
2022/06/20 09:11:09;;;;;;;;;14.00;13.33;;;;;24.61;52.11;100328.70;110259;1264;20015;-48
2022/06/20 09:13:37;;;;;;;;;13.00;12.50;;;;;24.61;51.92;100312.14;110225;1262;20133;-50
2022/06/20 09:16:04;;;;;;;;;11.00;11.00;;;;;24.58;52.19;100349.91;110248;1264;19934;-50
2022/06/20 09:18:31;;;;;;;;;16.00;13.00;;;;;24.56;52.31;100369.05;110264;1264;19069;-48
2022/06/20 09:20:58;;;;;;;;;12.00;12.00;;;;;24.56;52.47;100360.66;110245;1265;19804;-50
2022/06/20 09:23:26;;;;;;;;;17.00;12.33;;;;;24.58;52.47;100372.38;110273;1265;18894;-49
2022/06/20 09:25:53;;;;;;;;;11.67;11.33;;;;;24.57;52.53;100376.09;110190;1264;18921;-53
2022/06/20 09:28:20;;;;;;;;;13.67;13.33;;;;;24.56;52.87;100378.50;110233;1264;19671;-48
2022/06/20 09:30:47;;;;;;;;;12.00;12.00;;;;;24.56;52.90;100396.04;110281;1265;18775;-48
2022/06/20 09:33:15;;;;;;;;;28.67;26.33;;;;;24.54;53.16;100432.98;110045;1263;20476;-49
2022/06/20 09:35:42;;;;;;;;;91.00;66.67;;;;;24.52;53.65;100479.61;110129;1264;19638;-50
2022/06/20 09:38:09;;;;;;;;;107.33;78.67;;;;;24.55;53.72;100544.27;110193;1264;18802;-50
2022/06/20 09:40:37;;;;;;;;;225.00;161.50;;;;;24.59;53.68;100607.48;110174;1264;20430;-49
2022/06/20 09:43:04;;;;;;;;;158.00;111.50;;;;;24.60;53.55;100621.52;110192;1264;20241;-52
2022/06/20 09:45:31;;;;;;;;;169.50;128.00;;;;;24.56;53.80;100545.45;110234;1264;19236;-48
2022/06/20 09:47:59;;;;;;;;;140.00;104.00;;;;;24.52;53.86;100430.25;110202;1265;22332;-49
2022/06/20 09:50:26;;;;;;;;;105.33;75.00;;;;;24.56;53.77;100357.83;110233;1265;19527;-51
2022/06/20 09:52:53;;;;;;;;;101.00;78.00;;;;;24.59;54.04;100264.25;110083;1264;19337;-49
2022/06/20 09:55:20;;;;;;;;;91.33;66.67;;;;;24.62;53.84;100253.66;110206;1265;19499;-52
2022/06/20 09:57:48;;;;;;;;;82.00;58.67;;;;;24.67;53.57;100245.38;110220;1264;21184;-50
2022/06/20 10:00:15;;;;;;;;;75.33;52.33;;;;;24.65;53.69;100244.84;110107;1264;18700;-47
2022/06/20 10:02:42;;;;;;;;;68.00;50.67;;;;;24.55;53.81;100253.96;110074;1264;18896;-48
2022/06/20 10:05:09;;;;;;;;;66.00;49.00;;;;;24.45;54.13;100217.91;110136;1263;19785;-51
2022/06/20 10:07:37;;;;;;;;;64.00;47.00;;;;;24.50;53.99;100200.08;110092;1263;19023;-49
2022/06/20 10:10:05;;;;;;;;;61.67;47.00;;;;;24.56;53.85;100200.90;110110;1264;20303;-46
2022/06/20 10:12:32;;;;;;;;;53.33;39.67;;;;;24.60;53.96;100215.02;110223;1265;19529;-49
2022/06/20 10:15:01;;;;;;;;;42.67;36.00;;;;;24.51;54.55;100209.55;110229;1264;18814;-49
2022/06/20 10:17:29;;;;;;;;;43.67;36.00;;;;;24.47;54.84;100186.55;110188;1264;18872;-48
2022/06/20 10:19:56;;;;;;;;;32.67;28.00;;;;;24.55;54.95;100167.98;110246;1264;19692;-48
2022/06/20 10:22:23;;;;;;;;;35.00;27.67;;;;;24.59;54.82;100153.35;110185;1263;18820;-48
2022/06/20 10:24:51;;;;;;;;;27.67;26.00;;;;;24.60;54.78;100138.71;110249;1264;20366;-49
2022/06/20 10:27:18;;;;;;;;;26.00;23.00;;;;;24.53;54.86;100150.13;110377;1265;19355;-49
2022/06/20 10:29:45;;;;;;;;;28.67;22.00;;;;;24.49;55.03;100175.16;110158;1262;21618;-51
2022/06/20 10:32:13;;;;;;;;;24.67;19.33;;;;;24.56;54.84;100186.11;110234;1264;18823;-50
2022/06/20 10:34:40;;;;;;;;;23.67;21.00;;;;;24.65;55.06;100182.40;110243;1264;22390;-49
2022/06/20 10:37:07;;;;;;;;;22.00;18.33;;;;;24.72;54.50;100180.14;110171;1263;18871;-50
2022/06/20 10:39:34;;;;;;;;;22.00;21.00;;;;;24.73;54.44;100206.00;110175;1264;23334;-51
2022/06/20 10:42:02;;;;;;;;;21.00;18.00;;;;;24.68;54.61;100198.04;110170;1264;19486;-51
2022/06/20 10:44:29;;;;;;;;;17.00;16.00;;;;;24.40;54.93;100163.55;110205;1264;18856;-50
2022/06/20 10:46:57;;;;;;;;;16.50;16.50;;;;;24.27;55.17;100144.27;110158;1265;20091;-50
2022/06/20 10:49:24;;;;;;;;;14.33;13.67;;;;;24.34;54.80;100156.86;110197;1264;19495;-51
2022/06/20 10:51:51;;;;;;;;;15.00;12.67;;;;;24.31;54.69;100179.53;110206;1265;19197;-50
2022/06/20 10:54:19;;;;;;;;;13.67;13.00;;;;;24.10;55.01;100191.17;110219;1264;22194;-55
2022/06/20 10:56:46;;;;;;;;;13.00;12.33;;;;;23.86;55.30;100177.27;110187;1264;19553;-51
2022/06/20 10:59:13;;;;;;;;;12.00;12.00;;;;;23.49;55.81;100166.23;110159;1264;18853;-51
2022/06/20 11:01:41;;;;;;;;;12.33;11.67;;;;;23.18;56.31;100157.80;110171;1264;19018;-49
2022/06/20 11:04:08;;;;;;;;;15.33;13.67;;;;;23.15;56.46;100149.39;110262;1264;19593;-50
2022/06/20 11:06:36;;;;;;;;;14.33;13.67;;;;;23.22;56.04;100130.60;110267;1264;19285;-51
2022/06/20 11:09:03;;;;;;;;;16.00;14.00;;;;;23.16;56.17;100132.90;110234;1264;19060;-48
2022/06/20 11:11:30;;;;;;;;;16.67;15.00;;;;;22.90;56.62;100169.15;110268;1265;19545;-51
2022/06/20 11:13:58;;;;;;;;;15.00;12.00;;;;;22.88;56.73;100176.75;110176;1265;22250;-50
2022/06/20 11:16:25;;;;;;;;;12.00;12.00;;;;;22.62;57.14;100157.49;110189;1264;23935;-50
2022/06/20 11:18:52;;;;;;;;;10.67;10.33;;;;;22.69;57.29;100122.35;110174;1264;21133;-50